Main page
METAR-TAF:

METAR-TAF

Airports :

Gwadar International Airport

Gwadar, Pakistan

latitude: 25-13-59N, longitude: 062-19-46E, elevation: 29 m

METAR: missing

Time: 18:52 (13:52 UTC)

Forecast

The report was made 3 hours and 52 minutes ago, at 10:00 UTC
Forecast valid from 20 at 12 UTC to 21 at 12 UTC
Wind 8 kt from the Southwest with gusts up to 18 kt
Visibility: 6000 m
Scattered clouds at a height of 3000 ft
Becoming
from 20 at 18 UTC to 20 at 20 UTC
Wind 8 kt from the West
Visibility: 5000 m
Few clouds at a height of 3000 ft
Scattered clouds at a height of 10000 ft
haze
Temporary
from 21 at 00 UTC to 21 at 04 UTC
Wind 3 kt from variable directions
Visibility: 5000 m
Scattered clouds at a height of 3000 ft
haze

TAF: OPGD 201000Z 2012/2112 23008G18KT 6000 SCT030 BECMG 2018/2020 27008KT 5000 HZ FEW030 SCT100 TEMPO 2100/2104 VRB03KT 5000 HZ SCT030

Weather observations and forecasts of more than 4000 airports (METAR and TAF reports).

The available stations are represented by yellow and red dots on the map.

Hover mouse over dot to see the name of the station.

Then click to see weather observations and forecasts.

To change the map : click on the green buttons with a black cross to zoom in, on the green button with a dash to zoom out, or on the green arrows for adjacent maps.


METAR-TAF: